sensor_id;sensor_type;location;lat;lon;timestamp;temperature;humidity
14140;DHT22;7150;53.514;9.988;2023-11-21T00:00:15;12.50;99.90
14140;DHT22;7150;53.514;9.988;2023-11-21T00:02:41;12.50;99.90
14140;DHT22;7150;53.514;9.988;2023-11-21T00:05:11;12.50;99.90
14140;DHT22;7150;53.514;9.988;2023-11-21T00:07:39;12.50;99.90
14140;DHT22;7150;53.514;9.988;2023-11-21T00:10:05;12.50;99.90
14140;DHT22;7150;53.514;9.988;2023-11-21T00:12:31;12.40;99.90
14140;DHT22;7150;53.514;9.988;2023-11-21T00:14:58;12.40;99.90
14140;DHT22;7150;53.514;9.988;2023-11-21T00:17:24;12.40;99.90
14140;DHT22;7150;53.514;9.988;2023-11-21T00:19:50;12.40;99.90
14140;DHT22;7150;53.514;9.988;2023-11-21T00:22:17;12.40;99.90
14140;DHT22;7150;53.514;9.988;2023-11-21T00:24:43;12.30;99.90
14140;DHT22;7150;53.514;9.988;2023-11-21T00:27:08;12.30;99.90
14140;DHT22;7150;53.514;9.988;2023-11-21T00:29:34;12.20;99.90
14140;DHT22;7150;53.514;9.988;2023-11-21T00:31:59;12.20;99.90
14140;DHT22;7150;53.514;9.988;2023-11-21T00:34:25;12.20;99.90
14140;DHT22;7150;53.514;9.988;2023-11-21T00:36:50;12.20;99.90
14140;DHT22;7150;53.514;9.988;2023-11-21T00:39:16;12.10;99.90
14140;DHT22;7150;53.514;9.988;2023-11-21T00:41:41;12.10;99.90
14140;DHT22;7150;53.514;9.988;2023-11-21T00:44:07;12.10;99.90
14140;DHT22;7150;53.514;9.988;2023-11-21T00:46:33;12.00;99.90
14140;DHT22;7150;53.514;9.988;2023-11-21T00:48:58;12.00;99.90
14140;DHT22;7150;53.514;9.988;2023-11-21T00:51:24;11.90;99.90
14140;DHT22;7150;53.514;9.988;2023-11-21T00:53:49;11.90;99.90
14140;DHT22;7150;53.514;9.988;2023-11-21T00:56:15;11.90;99.90
14140;DHT22;7150;53.514;9.988;2023-11-21T00:58:41;11.80;99.90
14140;DHT22;7150;53.514;9.988;2023-11-21T01:01:11;11.80;99.90
14140;DHT22;7150;53.514;9.988;2023-11-21T01:03:37;11.80;99.90
14140;DHT22;7150;53.514;9.988;2023-11-21T01:06:03;11.80;99.90
14140;DHT22;7150;53.514;9.988;2023-11-21T01:08:29;11.80;99.90
14140;DHT22;7150;53.514;9.988;2023-11-21T01:10:56;11.80;99.90
14140;DHT22;7150;53.514;9.988;2023-11-21T01:13:22;11.80;99.90
14140;DHT22;7150;53.514;9.988;2023-11-21T01:15:47;11.70;99.90
14140;DHT22;7150;53.514;9.988;2023-11-21T01:18:13;11.70;99.90
14140;DHT22;7150;53.514;9.988;2023-11-21T01:20:38;11.70;99.90
14140;DHT22;7150;53.514;9.988;2023-11-21T01:23:04;11.60;99.90
14140;DHT22;7150;53.514;9.988;2023-11-21T01:25:30;11.60;99.90
14140;DHT22;7150;53.514;9.988;2023-11-21T01:27:55;11.50;99.90
14140;DHT22;7150;53.514;9.988;2023-11-21T01:30:21;11.50;99.90
14140;DHT22;7150;53.514;9.988;2023-11-21T01:32:47;11.50;99.90
14140;DHT22;7150;53.514;9.988;2023-11-21T01:35:13;11.50;99.90
14140;DHT22;7150;53.514;9.988;2023-11-21T01:37:38;11.50;99.90
14140;DHT22;7150;53.514;9.988;2023-11-21T01:40:04;11.40;99.90
14140;DHT22;7150;53.514;9.988;2023-11-21T01:42:36;11.40;99.90
14140;DHT22;7150;53.514;9.988;2023-11-21T01:45:02;11.40;99.90
14140;DHT22;7150;53.514;9.988;2023-11-21T01:47:31;11.40;99.90
14140;DHT22;7150;53.514;9.988;2023-11-21T01:49:56;11.40;99.90
14140;DHT22;7150;53.514;9.988;2023-11-21T01:52:22;11.40;99.90
14140;DHT22;7150;53.514;9.988;2023-11-21T01:54:48;11.40;99.90
14140;DHT22;7150;53.514;9.988;2023-11-21T01:57:14;11.40;99.90
14140;DHT22;7150;53.514;9.988;2023-11-21T01:59:41;11.40;99.90
14140;DHT22;7150;53.514;9.988;2023-11-21T02:02:08;11.40;99.90
14140;DHT22;7150;53.514;9.988;2023-11-21T02:04:35;11.40;99.90
14140;DHT22;7150;53.514;9.988;2023-11-21T02:07:02;11.40;99.90
14140;DHT22;7150;53.514;9.988;2023-11-21T02:09:32;11.30;99.90
14140;DHT22;7150;53.514;9.988;2023-11-21T02:11:59;11.40;99.90
14140;DHT22;7150;53.514;9.988;2023-11-21T02:14:25;11.30;99.90
14140;DHT22;7150;53.514;9.988;2023-11-21T02:16:52;11.20;99.90
14140;DHT22;7150;53.514;9.988;2023-11-21T02:19:18;11.20;99.90
14140;DHT22;7150;53.514;9.988;2023-11-21T02:21:51;11.20;99.90
14140;DHT22;7150;53.514;9.988;2023-11-21T02:24:21;11.20;99.90
14140;DHT22;7150;53.514;9.988;2023-11-21T02:26:48;11.20;99.90
14140;DHT22;7150;53.514;9.988;2023-11-21T02:29:17;11.20;99.90
14140;DHT22;7150;53.514;9.988;2023-11-21T02:31:44;11.20;99.90
14140;DHT22;7150;53.514;9.988;2023-11-21T02:34:16;11.20;99.90
14140;DHT22;7150;53.514;9.988;2023-11-21T02:36:45;11.20;99.90
14140;DHT22;7150;53.514;9.988;2023-11-21T02:39:11;11.20;99.90
14140;DHT22;7150;53.514;9.988;2023-11-21T02:41:39;11.20;99.90
14140;DHT22;7150;53.514;9.988;2023-11-21T02:44:08;11.30;99.90
14140;DHT22;7150;53.514;9.988;2023-11-21T02:46:34;11.20;99.90
14140;DHT22;7150;53.514;9.988;2023-11-21T02:49:06;11.30;99.90
14140;DHT22;7150;53.514;9.988;2023-11-21T02:51:32;11.30;99.90
14140;DHT22;7150;53.514;9.988;2023-11-21T02:53:58;11.20;99.90
14140;DHT22;7150;53.514;9.988;2023-11-21T02:56:25;11.20;99.90
14140;DHT22;7150;53.514;9.988;2023-11-21T02:58:56;11.20;99.90
14140;DHT22;7150;53.514;9.988;2023-11-21T03:01:22;11.00;99.90
14140;DHT22;7150;53.514;9.988;2023-11-21T03:03:49;11.00;99.90
14140;DHT22;7150;53.514;9.988;2023-11-21T03:06:17;11.00;99.90
14140;DHT22;7150;53.514;9.988;2023-11-21T03:08:42;11.00;99.90
14140;DHT22;7150;53.514;9.988;2023-11-21T03:11:08;11.00;99.90
14140;DHT22;7150;53.514;9.988;2023-11-21T03:13:33;11.00;99.90
14140;DHT22;7150;53.514;9.988;2023-11-21T03:15:59;11.00;99.90
14140;DHT22;7150;53.514;9.988;2023-11-21T03:18:25;11.00;99.90
14140;DHT22;7150;53.514;9.988;2023-11-21T03:20:52;11.00;99.90
14140;DHT22;7150;53.514;9.988;2023-11-21T03:23:18;11.00;99.90
14140;DHT22;7150;53.514;9.988;2023-11-21T03:25:43;11.10;99.90
14140;DHT22;7150;53.514;9.988;2023-11-21T03:28:09;11.10;99.90
14140;DHT22;7150;53.514;9.988;2023-11-21T03:30:34;11.10;99.90
14140;DHT22;7150;53.514;9.988;2023-11-21T03:33:00;11.10;99.90
14140;DHT22;7150;53.514;9.988;2023-11-21T03:35:26;11.10;99.90
14140;DHT22;7150;53.514;9.988;2023-11-21T03:37:51;11.10;99.90
14140;DHT22;7150;53.514;9.988;2023-11-21T03:40:17;11.10;99.90
14140;DHT22;7150;53.514;9.988;2023-11-21T03:42:42;11.10;99.90
14140;DHT22;7150;53.514;9.988;2023-11-21T03:45:08;11.00;99.90
14140;DHT22;7150;53.514;9.988;2023-11-21T03:47:34;11.00;99.90
14140;DHT22;7150;53.514;9.988;2023-11-21T03:49:59;10.90;99.90
14140;DHT22;7150;53.514;9.988;2023-11-21T03:52:25;10.90;99.90
14140;DHT22;7150;53.514;9.988;2023-11-21T03:54:50;10.80;99.90
14140;DHT22;7150;53.514;9.988;2023-11-21T03:57:16;10.80;99.90
14140;DHT22;7150;53.514;9.988;2023-11-21T03:59:42;10.70;99.90
14140;DHT22;7150;53.514;9.988;2023-11-21T04:02:09;10.70;99.90
14140;DHT22;7150;53.514;9.988;2023-11-21T04:04:35;10.80;99.90
14140;DHT22;7150;53.514;9.988;2023-11-21T04:07:01;10.80;99.90
14140;DHT22;7150;53.514;9.988;2023-11-21T04:09:27;10.80;99.90
14140;DHT22;7150;53.514;9.988;2023-11-21T04:11:53;10.80;99.90
14140;DHT22;7150;53.514;9.988;2023-11-21T04:14:19;10.70;99.90
14140;DHT22;7150;53.514;9.988;2023-11-21T04:16:45;10.70;99.90
14140;DHT22;7150;53.514;9.988;2023-11-21T04:19:10;10.70;99.90
14140;DHT22;7150;53.514;9.988;2023-11-21T04:21:37;10.70;99.90
14140;DHT22;7150;53.514;9.988;2023-11-21T04:24:02;10.70;99.90
14140;DHT22;7150;53.514;9.988;2023-11-21T04:26:28;10.70;99.90
14140;DHT22;7150;53.514;9.988;2023-11-21T04:28:53;10.70;99.90
14140;DHT22;7150;53.514;9.988;2023-11-21T04:31:19;10.70;99.90
14140;DHT22;7150;53.514;9.988;2023-11-21T04:33:44;10.70;99.90
14140;DHT22;7150;53.514;9.988;2023-11-21T04:36:10;10.70;99.90
14140;DHT22;7150;53.514;9.988;2023-11-21T04:38:36;10.70;99.90
14140;DHT22;7150;53.514;9.988;2023-11-21T04:41:01;10.70;99.90
14140;DHT22;7150;53.514;9.988;2023-11-21T04:43:27;10.70;99.90
14140;DHT22;7150;53.514;9.988;2023-11-21T04:45:54;10.70;99.90
14140;DHT22;7150;53.514;9.988;2023-11-21T04:48:19;10.70;99.90
14140;DHT22;7150;53.514;9.988;2023-11-21T04:50:45;10.80;99.90
14140;DHT22;7150;53.514;9.988;2023-11-21T04:53:10;10.80;99.90
14140;DHT22;7150;53.514;9.988;2023-11-21T04:55:38;10.80;99.90
14140;DHT22;7150;53.514;9.988;2023-11-21T04:58:04;10.80;99.90
14140;DHT22;7150;53.514;9.988;2023-11-21T05:00:30;10.90;99.90
14140;DHT22;7150;53.514;9.988;2023-11-21T05:02:55;10.80;99.90
14140;DHT22;7150;53.514;9.988;2023-11-21T05:05:21;10.70;99.90
14140;DHT22;7150;53.514;9.988;2023-11-21T05:07:46;10.70;99.90
14140;DHT22;7150;53.514;9.988;2023-11-21T05:10:12;10.80;99.90
14140;DHT22;7150;53.514;9.988;2023-11-21T05:12:40;10.70;99.90
14140;DHT22;7150;53.514;9.988;2023-11-21T05:15:07;10.70;99.90
14140;DHT22;7150;53.514;9.988;2023-11-21T05:17:37;10.60;99.90
14140;DHT22;7150;53.514;9.988;2023-11-21T05:20:03;10.60;99.90
14140;DHT22;7150;53.514;9.988;2023-11-21T05:22:29;10.60;99.90
14140;DHT22;7150;53.514;9.988;2023-11-21T05:24:55;10.60;99.90
14140;DHT22;7150;53.514;9.988;2023-11-21T05:27:21;10.60;99.90
14140;DHT22;7150;53.514;9.988;2023-11-21T05:29:46;10.60;99.90
14140;DHT22;7150;53.514;9.988;2023-11-21T05:32:11;10.60;99.90
14140;DHT22;7150;53.514;9.988;2023-11-21T05:34:37;10.60;99.90
14140;DHT22;7150;53.514;9.988;2023-11-21T05:37:03;10.70;99.90
14140;DHT22;7150;53.514;9.988;2023-11-21T05:39:30;10.70;99.90
14140;DHT22;7150;53.514;9.988;2023-11-21T05:41:57;10.70;99.90
14140;DHT22;7150;53.514;9.988;2023-11-21T05:44:23;10.70;99.90
14140;DHT22;7150;53.514;9.988;2023-11-21T05:46:49;10.70;99.90
14140;DHT22;7150;53.514;9.988;2023-11-21T05:49:15;10.80;99.90
14140;DHT22;7150;53.514;9.988;2023-11-21T05:51:41;10.80;99.90
14140;DHT22;7150;53.514;9.988;2023-11-21T05:54:07;10.80;99.90
14140;DHT22;7150;53.514;9.988;2023-11-21T05:56:33;10.80;99.90
14140;DHT22;7150;53.514;9.988;2023-11-21T05:58:59;10.80;99.90
14140;DHT22;7150;53.514;9.988;2023-11-21T06:01:25;10.60;99.90
14140;DHT22;7150;53.514;9.988;2023-11-21T06:03:53;10.80;99.90
14140;DHT22;7150;53.514;9.988;2023-11-21T06:06:19;10.80;99.90
14140;DHT22;7150;53.514;9.988;2023-11-21T06:08:45;10.80;99.90
14140;DHT22;7150;53.514;9.988;2023-11-21T06:11:10;10.90;99.90
14140;DHT22;7150;53.514;9.988;2023-11-21T06:13:37;10.90;99.90
14140;DHT22;7150;53.514;9.988;2023-11-21T06:16:03;10.90;99.90
14140;DHT22;7150;53.514;9.988;2023-11-21T06:18:30;10.80;99.90
14140;DHT22;7150;53.514;9.988;2023-11-21T06:20:55;10.80;99.90
14140;DHT22;7150;53.514;9.988;2023-11-21T06:23:20;10.90;99.90
14140;DHT22;7150;53.514;9.988;2023-11-21T06:25:46;10.90;99.90
14140;DHT22;7150;53.514;9.988;2023-11-21T06:28:11;10.80;99.90
14140;DHT22;7150;53.514;9.988;2023-11-21T06:30:37;10.80;99.90
14140;DHT22;7150;53.514;9.988;2023-11-21T06:33:03;10.80;99.90
14140;DHT22;7150;53.514;9.988;2023-11-21T06:35:28;10.80;99.90
14140;DHT22;7150;53.514;9.988;2023-11-21T06:37:55;10.80;99.90
14140;DHT22;7150;53.514;9.988;2023-11-21T06:40:21;10.80;99.90
14140;DHT22;7150;53.514;9.988;2023-11-21T06:42:47;10.80;99.90
14140;DHT22;7150;53.514;9.988;2023-11-21T06:45:13;10.80;99.90
14140;DHT22;7150;53.514;9.988;2023-11-21T06:47:38;10.80;99.90
14140;DHT22;7150;53.514;9.988;2023-11-21T06:50:05;10.70;99.90
14140;DHT22;7150;53.514;9.988;2023-11-21T06:52:32;10.70;99.90
14140;DHT22;7150;53.514;9.988;2023-11-21T06:54:57;10.60;99.90
14140;DHT22;7150;53.514;9.988;2023-11-21T06:57:23;10.70;99.90
14140;DHT22;7150;53.514;9.988;2023-11-21T06:59:49;10.60;99.90
14140;DHT22;7150;53.514;9.988;2023-11-21T07:02:16;10.60;99.90
14140;DHT22;7150;53.514;9.988;2023-11-21T07:04:46;10.60;99.90
14140;DHT22;7150;53.514;9.988;2023-11-21T07:07:12;10.70;99.90
14140;DHT22;7150;53.514;9.988;2023-11-21T07:09:38;10.70;99.90
14140;DHT22;7150;53.514;9.988;2023-11-21T07:12:04;10.80;99.90
14140;DHT22;7150;53.514;9.988;2023-11-21T07:14:31;10.80;99.90
14140;DHT22;7150;53.514;9.988;2023-11-21T07:16:57;10.80;99.90
14140;DHT22;7150;53.514;9.988;2023-11-21T07:19:23;10.80;99.90
14140;DHT22;7150;53.514;9.988;2023-11-21T07:21:48;10.80;99.90
14140;DHT22;7150;53.514;9.988;2023-11-21T07:24:16;10.80;99.90
14140;DHT22;7150;53.514;9.988;2023-11-21T07:26:41;10.80;99.90
14140;DHT22;7150;53.514;9.988;2023-11-21T07:29:08;10.70;99.90
14140;DHT22;7150;53.514;9.988;2023-11-21T07:31:34;10.80;99.90
14140;DHT22;7150;53.514;9.988;2023-11-21T07:34:00;10.70;99.90
14140;DHT22;7150;53.514;9.988;2023-11-21T07:36:26;10.80;99.90
14140;DHT22;7150;53.514;9.988;2023-11-21T07:38:51;10.80;99.90
14140;DHT22;7150;53.514;9.988;2023-11-21T07:41:18;10.70;99.90
14140;DHT22;7150;53.514;9.988;2023-11-21T07:43:44;10.70;99.90
14140;DHT22;7150;53.514;9.988;2023-11-21T07:46:10;10.70;99.90
14140;DHT22;7150;53.514;9.988;2023-11-21T07:48:38;10.70;99.90
14140;DHT22;7150;53.514;9.988;2023-11-21T07:51:03;10.70;99.90
14140;DHT22;7150;53.514;9.988;2023-11-21T07:53:29;10.70;99.90
14140;DHT22;7150;53.514;9.988;2023-11-21T07:56:00;10.70;99.90
14140;DHT22;7150;53.514;9.988;2023-11-21T07:58:27;10.80;99.90
14140;DHT22;7150;53.514;9.988;2023-11-21T08:00:53;10.80;99.90
14140;DHT22;7150;53.514;9.988;2023-11-21T08:03:18;10.80;99.90
14140;DHT22;7150;53.514;9.988;2023-11-21T08:05:43;10.80;99.90
14140;DHT22;7150;53.514;9.988;2023-11-21T08:08:10;10.80;99.90
14140;DHT22;7150;53.514;9.988;2023-11-21T08:10:35;10.80;99.90
14140;DHT22;7150;53.514;9.988;2023-11-21T08:13:02;10.80;99.90
14140;DHT22;7150;53.514;9.988;2023-11-21T08:15:27;10.90;99.90
14140;DHT22;7150;53.514;9.988;2023-11-21T08:17:52;10.80;99.90
14140;DHT22;7150;53.514;9.988;2023-11-21T08:20:18;10.90;99.90
14140;DHT22;7150;53.514;9.988;2023-11-21T08:22:44;10.90;99.90
14140;DHT22;7150;53.514;9.988;2023-11-21T08:25:10;10.80;99.90
14140;DHT22;7150;53.514;9.988;2023-11-21T08:27:35;10.80;99.90
14140;DHT22;7150;53.514;9.988;2023-11-21T08:30:02;10.80;99.90
14140;DHT22;7150;53.514;9.988;2023-11-21T08:32:28;10.80;99.90
14140;DHT22;7150;53.514;9.988;2023-11-21T08:34:55;10.80;99.90
14140;DHT22;7150;53.514;9.988;2023-11-21T08:37:21;10.80;99.90
14140;DHT22;7150;53.514;9.988;2023-11-21T08:39:47;10.80;99.90
14140;DHT22;7150;53.514;9.988;2023-11-21T08:42:18;10.80;99.90
14140;DHT22;7150;53.514;9.988;2023-11-21T08:44:44;10.80;99.90
14140;DHT22;7150;53.514;9.988;2023-11-21T08:47:09;10.80;99.90
14140;DHT22;7150;53.514;9.988;2023-11-21T08:49:35;10.80;99.90
14140;DHT22;7150;53.514;9.988;2023-11-21T08:52:00;10.80;99.90
14140;DHT22;7150;53.514;9.988;2023-11-21T08:54:26;10.90;99.90
14140;DHT22;7150;53.514;9.988;2023-11-21T08:56:52;10.80;99.90
14140;DHT22;7150;53.514;9.988;2023-11-21T08:59:18;10.90;99.90
14140;DHT22;7150;53.514;9.988;2023-11-21T09:01:45;10.90;99.90
14140;DHT22;7150;53.514;9.988;2023-11-21T09:04:14;10.90;99.90
14140;DHT22;7150;53.514;9.988;2023-11-21T09:06:39;10.90;99.90
14140;DHT22;7150;53.514;9.988;2023-11-21T09:09:06;10.90;99.90
14140;DHT22;7150;53.514;9.988;2023-11-21T09:11:34;11.00;99.90
14140;DHT22;7150;53.514;9.988;2023-11-21T09:14:01;11.00;99.90
14140;DHT22;7150;53.514;9.988;2023-11-21T09:16:26;10.90;99.90
14140;DHT22;7150;53.514;9.988;2023-11-21T09:18:52;10.90;99.90
14140;DHT22;7150;53.514;9.988;2023-11-21T09:21:17;10.90;99.90
14140;DHT22;7150;53.514;9.988;2023-11-21T09:23:44;10.90;99.90
14140;DHT22;7150;53.514;9.988;2023-11-21T09:26:10;10.90;99.90
14140;DHT22;7150;53.514;9.988;2023-11-21T09:28:36;10.90;99.90
14140;DHT22;7150;53.514;9.988;2023-11-21T09:31:07;10.80;99.90
14140;DHT22;7150;53.514;9.988;2023-11-21T09:33:34;10.80;99.90
14140;DHT22;7150;53.514;9.988;2023-11-21T09:36:00;10.90;99.90
14140;DHT22;7150;53.514;9.988;2023-11-21T09:38:26;10.80;99.90
14140;DHT22;7150;53.514;9.988;2023-11-21T09:40:54;10.90;99.90
14140;DHT22;7150;53.514;9.988;2023-11-21T09:43:20;10.80;99.90
14140;DHT22;7150;53.514;9.988;2023-11-21T09:45:50;10.80;99.90
14140;DHT22;7150;53.514;9.988;2023-11-21T09:48:20;10.80;99.90
14140;DHT22;7150;53.514;9.988;2023-11-21T09:50:47;10.80;99.90
14140;DHT22;7150;53.514;9.988;2023-11-21T09:53:18;10.80;99.90
14140;DHT22;7150;53.514;9.988;2023-11-21T09:55:48;10.80;99.90
14140;DHT22;7150;53.514;9.988;2023-11-21T09:58:14;10.90;99.90
14140;DHT22;7150;53.514;9.988;2023-11-21T10:00:41;10.80;99.90
14140;DHT22;7150;53.514;9.988;2023-11-21T10:03:07;10.90;99.90
14140;DHT22;7150;53.514;9.988;2023-11-21T10:05:34;10.90;99.90
14140;DHT22;7150;53.514;9.988;2023-11-21T10:08:00;10.90;99.90
14140;DHT22;7150;53.514;9.988;2023-11-21T10:10:27;10.90;99.90
14140;DHT22;7150;53.514;9.988;2023-11-21T10:12:56;10.90;99.90
14140;DHT22;7150;53.514;9.988;2023-11-21T10:15:23;10.90;99.90
14140;DHT22;7150;53.514;9.988;2023-11-21T10:17:50;10.90;99.90
14140;DHT22;7150;53.514;9.988;2023-11-21T10:20:24;10.80;99.90
14140;DHT22;7150;53.514;9.988;2023-11-21T10:22:51;10.90;99.90
14140;DHT22;7150;53.514;9.988;2023-11-21T10:25:17;10.90;99.90
14140;DHT22;7150;53.514;9.988;2023-11-21T10:27:47;10.90;99.90
14140;DHT22;7150;53.514;9.988;2023-11-21T10:30:13;10.90;99.90
14140;DHT22;7150;53.514;9.988;2023-11-21T10:32:39;10.90;99.90
14140;DHT22;7150;53.514;9.988;2023-11-21T10:35:06;10.90;99.90
14140;DHT22;7150;53.514;9.988;2023-11-21T10:37:39;10.90;99.90
14140;DHT22;7150;53.514;9.988;2023-11-21T10:40:11;10.90;99.90
14140;DHT22;7150;53.514;9.988;2023-11-21T10:42:41;11.00;99.90
14140;DHT22;7150;53.514;9.988;2023-11-21T10:45:08;11.00;99.90
14140;DHT22;7150;53.514;9.988;2023-11-21T10:47:40;11.00;99.90
14140;DHT22;7150;53.514;9.988;2023-11-21T10:50:07;11.10;99.90
14140;DHT22;7150;53.514;9.988;2023-11-21T10:52:39;11.10;99.90
14140;DHT22;7150;53.514;9.988;2023-11-21T10:55:20;11.10;99.90
14140;DHT22;7150;53.514;9.988;2023-11-21T10:57:53;11.00;99.90
14140;DHT22;7150;53.514;9.988;2023-11-21T11:00:19;11.00;99.90
14140;DHT22;7150;53.514;9.988;2023-11-21T11:02:51;11.00;99.90
14140;DHT22;7150;53.514;9.988;2023-11-21T11:05:20;11.00;99.90
14140;DHT22;7150;53.514;9.988;2023-11-21T11:07:48;10.90;99.90
14140;DHT22;7150;53.514;9.988;2023-11-21T11:10:13;11.00;99.90
14140;DHT22;7150;53.514;9.988;2023-11-21T11:12:40;11.00;99.90
14140;DHT22;7150;53.514;9.988;2023-11-21T11:15:08;11.00;99.90
14140;DHT22;7150;53.514;9.988;2023-11-21T11:17:36;11.00;99.90
14140;DHT22;7150;53.514;9.988;2023-11-21T11:20:04;11.00;99.90
14140;DHT22;7150;53.514;9.988;2023-11-21T11:23:12;11.00;99.90
14140;DHT22;7150;53.514;9.988;2023-11-21T11:29:46;11.00;99.90
14140;DHT22;7150;53.514;9.988;2023-11-21T11:32:02;10.90;99.90
14140;DHT22;7150;53.514;9.988;2023-11-21T11:34:32;11.00;99.90
14140;DHT22;7150;53.514;9.988;2023-11-21T11:37:03;10.90;99.90
14140;DHT22;7150;53.514;9.988;2023-11-21T11:39:31;11.00;99.90
14140;DHT22;7150;53.514;9.988;2023-11-21T11:42:02;11.00;99.90
14140;DHT22;7150;53.514;9.988;2023-11-21T11:47:19;11.00;99.90
14140;DHT22;7150;53.514;9.988;2023-11-21T11:50:04;11.10;99.90
14140;DHT22;7150;53.514;9.988;2023-11-21T11:52:39;11.00;99.90
14140;DHT22;7150;53.514;9.988;2023-11-21T11:55:19;11.10;99.90
14140;DHT22;7150;53.514;9.988;2023-11-21T11:57:47;11.10;99.90
14140;DHT22;7150;53.514;9.988;2023-11-21T12:00:15;10.80;99.90
14140;DHT22;7150;53.514;9.988;2023-11-21T12:02:52;11.00;99.90
14140;DHT22;7150;53.514;9.988;2023-11-21T12:05:20;11.00;99.90
14140;DHT22;7150;53.514;9.988;2023-11-21T12:07:52;11.00;99.90
14140;DHT22;7150;53.514;9.988;2023-11-21T12:10:24;11.10;99.90
14140;DHT22;7150;53.514;9.988;2023-11-21T12:12:55;11.10;99.90
14140;DHT22;7150;53.514;9.988;2023-11-21T12:15:22;11.10;99.90
14140;DHT22;7150;53.514;9.988;2023-11-21T12:17:49;11.00;99.90
14140;DHT22;7150;53.514;9.988;2023-11-21T12:20:20;11.00;99.90
14140;DHT22;7150;53.514;9.988;2023-11-21T12:22:47;11.00;99.90
14140;DHT22;7150;53.514;9.988;2023-11-21T12:25:17;11.00;99.90
14140;DHT22;7150;53.514;9.988;2023-11-21T12:28:02;11.10;99.90
14140;DHT22;7150;53.514;9.988;2023-11-21T12:30:30;11.00;99.90
14140;DHT22;7150;53.514;9.988;2023-11-21T12:33:02;11.10;99.90
14140;DHT22;7150;53.514;9.988;2023-11-21T12:35:34;11.00;99.90
14140;DHT22;7150;53.514;9.988;2023-11-21T12:38:00;11.00;99.90
14140;DHT22;7150;53.514;9.988;2023-11-21T12:40:28;11.00;99.90
14140;DHT22;7150;53.514;9.988;2023-11-21T12:42:56;11.00;99.90
14140;DHT22;7150;53.514;9.988;2023-11-21T12:45:23;11.00;99.90
14140;DHT22;7150;53.514;9.988;2023-11-21T12:47:59;11.00;99.90
14140;DHT22;7150;53.514;9.988;2023-11-21T12:50:27;10.90;99.90
14140;DHT22;7150;53.514;9.988;2023-11-21T12:53:02;10.90;99.90
14140;DHT22;7150;53.514;9.988;2023-11-21T12:55:31;10.90;99.90
14140;DHT22;7150;53.514;9.988;2023-11-21T12:57:56;10.90;99.90
14140;DHT22;7150;53.514;9.988;2023-11-21T13:00:31;10.90;99.90
14140;DHT22;7150;53.514;9.988;2023-11-21T13:02:58;10.90;99.90
14140;DHT22;7150;53.514;9.988;2023-11-21T13:05:35;10.90;99.90
14140;DHT22;7150;53.514;9.988;2023-11-21T13:08:04;10.80;99.90
14140;DHT22;7150;53.514;9.988;2023-11-21T13:10:34;10.80;99.90
14140;DHT22;7150;53.514;9.988;2023-11-21T13:13:06;10.80;99.90
14140;DHT22;7150;53.514;9.988;2023-11-21T13:15:34;10.80;99.90
14140;DHT22;7150;53.514;9.988;2023-11-21T13:18:02;10.80;99.90
14140;DHT22;7150;53.514;9.988;2023-11-21T13:20:28;10.80;99.90
14140;DHT22;7150;53.514;9.988;2023-11-21T13:22:56;10.80;99.90
14140;DHT22;7150;53.514;9.988;2023-11-21T13:25:26;10.70;99.90
14140;DHT22;7150;53.514;9.988;2023-11-21T13:27:56;10.70;99.90
14140;DHT22;7150;53.514;9.988;2023-11-21T13:30:23;10.70;99.90
14140;DHT22;7150;53.514;9.988;2023-11-21T13:32:53;10.60;99.90
14140;DHT22;7150;53.514;9.988;2023-11-21T13:35:22;10.60;99.90
14140;DHT22;7150;53.514;9.988;2023-11-21T13:37:56;10.60;99.90
14140;DHT22;7150;53.514;9.988;2023-11-21T13:40:25;10.60;99.90
14140;DHT22;7150;53.514;9.988;2023-11-21T13:42:55;10.60;99.90
14140;DHT22;7150;53.514;9.988;2023-11-21T13:45:25;10.60;99.90
14140;DHT22;7150;53.514;9.988;2023-11-21T13:47:52;10.60;99.90
14140;DHT22;7150;53.514;9.988;2023-11-21T13:50:23;10.50;99.90
14140;DHT22;7150;53.514;9.988;2023-11-21T13:52:51;10.60;99.90
14140;DHT22;7150;53.514;9.988;2023-11-21T13:55:18;10.60;99.90
14140;DHT22;7150;53.514;9.988;2023-11-21T13:57:44;10.60;99.90
14140;DHT22;7150;53.514;9.988;2023-11-21T14:00:17;10.60;99.90
14140;DHT22;7150;53.514;9.988;2023-11-21T14:03:07;10.60;99.90
14140;DHT22;7150;53.514;9.988;2023-11-21T14:05:43;10.60;99.90
14140;DHT22;7150;53.514;9.988;2023-11-21T14:08:10;10.60;99.90
14140;DHT22;7150;53.514;9.988;2023-11-21T14:10:37;10.60;99.90
14140;DHT22;7150;53.514;9.988;2023-11-21T14:13:08;10.50;99.90
14140;DHT22;7150;53.514;9.988;2023-11-21T14:15:36;10.50;99.90
14140;DHT22;7150;53.514;9.988;2023-11-21T14:18:07;10.50;99.90
14140;DHT22;7150;53.514;9.988;2023-11-21T14:20:36;10.50;99.90
14140;DHT22;7150;53.514;9.988;2023-11-21T14:23:03;10.50;99.90
14140;DHT22;7150;53.514;9.988;2023-11-21T14:25:31;10.50;99.90
14140;DHT22;7150;53.514;9.988;2023-11-21T14:27:57;10.50;99.90
14140;DHT22;7150;53.514;9.988;2023-11-21T14:30:23;10.50;99.90
14140;DHT22;7150;53.514;9.988;2023-11-21T14:32:48;10.40;99.90
14140;DHT22;7150;53.514;9.988;2023-11-21T14:35:15;10.40;99.90
14140;DHT22;7150;53.514;9.988;2023-11-21T14:37:42;10.30;99.90
14140;DHT22;7150;53.514;9.988;2023-11-21T14:40:08;10.40;99.90
14140;DHT22;7150;53.514;9.988;2023-11-21T14:42:34;10.30;99.90
14140;DHT22;7150;53.514;9.988;2023-11-21T14:45:03;10.30;99.90
14140;DHT22;7150;53.514;9.988;2023-11-21T14:47:32;10.20;99.90
14140;DHT22;7150;53.514;9.988;2023-11-21T14:49:58;10.20;99.90
14140;DHT22;7150;53.514;9.988;2023-11-21T14:52:25;10.20;99.90
14140;DHT22;7150;53.514;9.988;2023-11-21T14:55:01;10.20;99.90
14140;DHT22;7150;53.514;9.988;2023-11-21T14:57:58;10.30;99.90
14140;DHT22;7150;53.514;9.988;2023-11-21T15:00:29;10.20;99.90
14140;DHT22;7150;53.514;9.988;2023-11-21T15:03:07;10.20;99.90
14140;DHT22;7150;53.514;9.988;2023-11-21T15:05:34;10.20;99.90
14140;DHT22;7150;53.514;9.988;2023-11-21T15:08:01;10.20;99.90
14140;DHT22;7150;53.514;9.988;2023-11-21T15:10:47;10.30;99.90
14140;DHT22;7150;53.514;9.988;2023-11-21T15:13:18;10.30;99.90
14140;DHT22;7150;53.514;9.988;2023-11-21T15:15:43;10.30;99.90
14140;DHT22;7150;53.514;9.988;2023-11-21T15:18:09;10.30;99.90
14140;DHT22;7150;53.514;9.988;2023-11-21T15:20:39;10.30;99.90
14140;DHT22;7150;53.514;9.988;2023-11-21T15:23:04;10.40;99.90
14140;DHT22;7150;53.514;9.988;2023-11-21T15:25:31;10.30;99.90
14140;DHT22;7150;53.514;9.988;2023-11-21T15:27:57;10.20;99.90
14140;DHT22;7150;53.514;9.988;2023-11-21T15:30:22;10.30;99.90
14140;DHT22;7150;53.514;9.988;2023-11-21T15:32:51;10.20;99.90
14140;DHT22;7150;53.514;9.988;2023-11-21T15:35:18;10.10;99.90
14140;DHT22;7150;53.514;9.988;2023-11-21T15:37:43;10.10;99.90
14140;DHT22;7150;53.514;9.988;2023-11-21T15:40:10;10.10;99.90
14140;DHT22;7150;53.514;9.988;2023-11-21T15:42:36;10.10;99.90
14140;DHT22;7150;53.514;9.988;2023-11-21T15:45:03;10.10;99.90
14140;DHT22;7150;53.514;9.988;2023-11-21T15:47:32;10.10;99.90
14140;DHT22;7150;53.514;9.988;2023-11-21T15:49:58;10.00;99.90
14140;DHT22;7150;53.514;9.988;2023-11-21T15:52:23;10.00;99.90